Time,TemperatureF,DewpointF,PressureIn,WindDirection,WindDirectionDegrees,WindSpeedMPH,WindSpeedGustMPH,Humidity,HourlyPrecipIn,Conditions,Clouds,dailyrainin,SolarRadiationWatts/m^2,SoftwareType,DateUTC
2013-07-28 00:04:00,59.2,54.4,29.89,NW,304,2.0,2.0,84,0.00,,,0.00,0,Wunderground v.1.15,2013-07-28 07:04:00,
2013-07-28 00:09:00,59.0,52.5,29.89,WNW,283,1.0,1.0,79,0.00,,,0.00,0,Wunderground v.1.15,2013-07-28 07:09:00,
2013-07-28 00:20:00,58.6,52.1,29.89,WSW,258,0.0,0.0,79,0.00,,,0.00,0,Wunderground v.1.15,2013-07-28 07:20:00,
2013-07-28 00:29:00,58.4,52.3,29.89,SW,232,0.0,0.0,80,0.00,,,0.00,0,Wunderground v.1.15,2013-07-28 07:29:00,
2013-07-28 00:39:00,58.2,52.1,29.89,SSW,212,0.0,0.0,80,0.00,,,0.00,0,Wunderground v.1.15,2013-07-28 07:39:00,
2013-07-28 00:49:00,58.1,52.0,29.89,SSW,212,0.0,0.0,80,0.00,,,0.00,0,Wunderground v.1.15,2013-07-28 07:49:00,
2013-07-28 00:54:00,58.1,51.6,29.88,SSW,212,0.0,0.0,79,0.00,,,0.00,0,Wunderground v.1.15,2013-07-28 07:54:00,
2013-07-28 00:59:00,58.1,51.6,29.88,SSW,201,1.0,1.0,79,0.00,,,0.00,0,Wunderground v.1.15,2013-07-28 07:59:00,
2013-07-28 01:09:00,58.0,51.9,29.88,SSW,195,0.0,0.0,80,0.00,,,0.00,0,Wunderground v.1.15,2013-07-28 08:09:00,
2013-07-28 01:15:00,57.8,49.9,29.88,SSW,203,2.0,2.0,75,0.00,,,0.00,0,Wunderground v.1.15,2013-07-28 08:15:00,
2013-07-28 01:20:00,57.7,46.4,29.88,SSW,200,1.0,1.0,66,0.00,,,0.00,0,Wunderground v.1.15,2013-07-28 08:20:00,
2013-07-28 01:29:00,57.6,45.9,29.88,SSW,195,2.0,2.0,65,0.00,,,0.00,0,Wunderground v.1.15,2013-07-28 08:29:00,
2013-07-28 01:39:00,57.5,54.6,29.87,SSW,198,0.0,0.0,90,0.00,,,0.00,0,Wunderground v.1.15,2013-07-28 08:39:00,
2013-07-28 01:45:00,57.5,55.2,29.88,South,188,2.0,2.0,92,0.00,,,0.00,0,Wunderground v.1.15,2013-07-28 08:45:00,
2013-07-28 01:50:00,57.4,54.8,29.87,South,188,0.0,0.0,91,0.00,,,0.00,0,Wunderground v.1.15,2013-07-28 08:50:00,
2013-07-28 01:59:00,57.3,52.8,29.87,South,188,1.0,1.0,85,0.00,,,0.00,0,Wunderground v.1.15,2013-07-28 08:59:00,
2013-07-28 02:09:00,57.1,46.2,29.87,South,188,0.0,0.0,67,0.00,,,0.00,0,Wunderground v.1.15,2013-07-28 09:09:00,
2013-07-28 02:15:00,57.1,46.2,29.88,South,188,1.0,1.0,67,0.00,,,0.00,0,Wunderground v.1.15,2013-07-28 09:15:00,
2013-07-28 02:20:00,57.2,46.7,29.88,South,188,0.0,0.0,68,0.00,,,0.00,0,Wunderground v.1.15,2013-07-28 09:20:00,
2013-07-28 02:29:00,57.2,46.7,29.88,South,188,0.0,0.0,68,0.00,,,0.00,0,Wunderground v.1.15,2013-07-28 09:29:00,
2013-07-28 02:39:00,57.1,46.6,29.87,South,188,0.0,0.0,68,0.00,,,0.00,0,Wunderground v.1.15,2013-07-28 09:39:00,
2013-07-28 02:45:00,57.0,47.3,29.87,South,188,0.0,0.0,70,0.00,,,0.00,0,Wunderground v.1.15,2013-07-28 09:45:00,
2013-07-28 02:50:00,57.0,49.5,29.87,South,188,0.0,0.0,76,0.00,,,0.00,0,Wunderground v.1.15,2013-07-28 09:50:00,
2013-07-28 02:59:00,57.0,52.5,29.87,South,188,0.0,0.0,85,0.00,,,0.00,0,Wunderground v.1.15,2013-07-28 09:59:00,
2013-07-28 03:09:00,56.8,45.6,29.86,South,188,0.0,0.0,66,0.00,,,0.00,0,Wunderground v.1.15,2013-07-28 10:09:00,
2013-07-28 03:15:00,56.7,45.5,29.86,South,188,0.0,0.0,66,0.00,,,0.00,0,Wunderground v.1.15,2013-07-28 10:15:00,
2013-07-28 03:20:00,56.7,45.9,29.86,South,188,0.0,0.0,67,0.00,,,0.00,0,Wunderground v.1.15,2013-07-28 10:20:00,
2013-07-28 03:29:00,56.7,45.5,29.86,South,188,0.0,0.0,66,0.00,,,0.00,0,Wunderground v.1.15,2013-07-28 10:29:00,
2013-07-28 03:39:00,56.6,45.0,29.86,South,188,0.0,0.0,65,0.00,,,0.00,0,Wunderground v.1.15,2013-07-28 10:39:00,
2013-07-28 03:49:00,56.7,45.1,29.86,South,188,0.0,0.0,65,0.00,,,0.00,0,Wunderground v.1.15,2013-07-28 10:49:00,
2013-07-28 03:54:00,56.9,46.1,29.86,South,188,0.0,0.0,67,0.00,,,0.00,0,Wunderground v.1.15,2013-07-28 10:54:00,
2013-07-28 04:04:00,57.0,46.9,29.85,South,188,0.0,0.0,69,0.00,,,0.00,0,Wunderground v.1.15,2013-07-28 11:04:00,
2013-07-28 04:09:00,57.1,47.0,29.85,South,188,0.0,0.0,69,0.00,,,0.00,0,Wunderground v.1.15,2013-07-28 11:09:00,
2013-07-28 04:15:00,57.1,47.0,29.85,South,188,0.0,0.0,69,0.00,,,0.00,0,Wunderground v.1.15,2013-07-28 11:15:00,
2013-07-28 04:20:00,57.1,46.2,29.85,South,188,1.0,1.0,67,0.00,,,0.00,0,Wunderground v.1.15,2013-07-28 11:20:00,
2013-07-28 04:29:00,57.1,45.8,29.85,South,188,0.0,0.0,66,0.00,,,0.00,0,Wunderground v.1.15,2013-07-28 11:29:00,
2013-07-28 04:39:00,57.2,45.9,29.85,South,188,0.0,0.0,66,0.00,,,0.00,0,Wunderground v.1.15,2013-07-28 11:39:00,
2013-07-28 04:45:00,57.3,46.0,29.85,South,188,0.0,0.0,66,0.00,,,0.00,0,Wunderground v.1.15,2013-07-28 11:45:00,
2013-07-28 04:54:00,57.3,46.0,29.85,South,188,0.0,2.0,66,0.00,,,0.00,0,Wunderground v.1.15,2013-07-28 11:54:00,
2013-07-28 04:59:00,57.3,46.4,29.85,South,188,1.0,1.0,67,0.00,,,0.00,0,Wunderground v.1.15,2013-07-28 11:59:00,
2013-07-28 05:05:00,57.2,46.3,29.85,South,188,1.0,1.0,67,0.00,,,0.00,0,Wunderground v.1.15,2013-07-28 12:05:00,
2013-07-28 05:10:00,57.3,46.0,29.85,South,188,0.0,0.0,66,0.00,,,0.00,0,Wunderground v.1.15,2013-07-28 12:10:00,
2013-07-28 05:19:00,57.2,46.3,29.85,South,188,0.0,0.0,67,0.00,,,0.00,0,Wunderground v.1.15,2013-07-28 12:19:00,
2013-07-28 05:29:00,57.3,45.6,29.85,South,188,1.0,1.0,65,0.00,,,0.00,0,Wunderground v.1.15,2013-07-28 12:29:00,
2013-07-28 05:35:00,57.4,45.7,29.85,South,188,0.0,1.0,65,0.00,,,0.00,0,Wunderground v.1.15,2013-07-28 12:35:00,
2013-07-28 05:40:00,57.5,46.2,29.85,South,191,2.0,2.0,66,0.00,,,0.00,0,Wunderground v.1.15,2013-07-28 12:40:00,
2013-07-28 05:49:00,57.3,45.6,29.85,South,190,0.0,0.0,65,0.00,,,0.00,0,Wunderground v.1.15,2013-07-28 12:49:00,
2013-07-28 05:59:00,57.2,45.9,29.85,South,190,0.0,0.0,66,0.00,,,0.00,0,Wunderground v.1.15,2013-07-28 12:59:00,
2013-07-28 06:09:00,57.2,45.9,29.85,South,190,1.0,1.0,66,0.00,,,0.00,0,Wunderground v.1.15,2013-07-28 13:09:00,
2013-07-28 06:14:00,57.3,46.0,29.85,South,190,0.0,1.0,66,0.00,,,0.00,0,Wunderground v.1.15,2013-07-28 13:14:00,
2013-07-28 06:19:00,57.3,46.0,29.85,South,190,1.0,1.0,66,0.00,,,0.00,0,Wunderground v.1.15,2013-07-28 13:19:00,
2013-07-28 06:29:00,57.5,46.2,29.86,South,190,0.0,0.0,66,0.00,,,0.00,0,Wunderground v.1.15,2013-07-28 13:29:00,
2013-07-28 06:39:00,57.7,46.4,29.86,South,190,0.0,0.0,66,0.00,,,0.00,0,Wunderground v.1.15,2013-07-28 13:39:00,
2013-07-28 06:44:00,57.8,46.5,29.86,South,190,0.0,0.0,66,0.00,,,0.00,0,Wunderground v.1.15,2013-07-28 13:44:00,
2013-07-28 06:49:00,57.8,46.5,29.86,South,190,0.0,0.0,66,0.00,,,0.00,0,Wunderground v.1.15,2013-07-28 13:49:00,
2013-07-28 06:59:00,57.9,46.6,29.86,South,190,1.0,1.0,66,0.00,,,0.00,0,Wunderground v.1.15,2013-07-28 13:59:00,
2013-07-28 07:05:00,58.0,46.7,29.86,SSW,192,2.0,2.0,66,0.00,,,0.00,0,Wunderground v.1.15,2013-07-28 14:05:00,
2013-07-28 07:10:00,58.0,46.3,29.86,West,280,3.0,3.0,65,0.00,,,0.00,0,Wunderground v.1.15,2013-07-28 14:10:00,
2013-07-28 07:19:00,58.0,46.3,29.86,West,280,1.0,1.0,65,0.00,,,0.00,0,Wunderground v.1.15,2013-07-28 14:19:00,
2013-07-28 07:29:00,58.0,46.3,29.86,NW,310,1.0,1.0,65,0.00,,,0.00,0,Wunderground v.1.15,2013-07-28 14:29:00,
2013-07-28 07:35:00,58.0,46.3,29.86,NW,310,1.0,1.0,65,0.00,,,0.00,0,Wunderground v.1.15,2013-07-28 14:35:00,
2013-07-28 07:44:00,58.2,46.5,29.87,WNW,298,1.0,1.0,65,0.00,,,0.00,0,Wunderground v.1.15,2013-07-28 14:44:00,
2013-07-28 07:49:00,58.5,46.8,29.87,SSW,208,0.0,0.0,65,0.00,,,0.00,0,Wunderground v.1.15,2013-07-28 14:49:00,
2013-07-28 07:55:00,58.8,47.1,29.87,SSW,196,1.0,1.0,65,0.00,,,0.00,0,Wunderground v.1.15,2013-07-28 14:55:00,
2013-07-28 08:00:00,59.1,47.3,29.87,SW,214,3.0,3.0,65,0.00,,,0.00,0,Wunderground v.1.15,2013-07-28 15:00:00,
2013-07-28 08:09:00,59.6,47.4,29.87,NNW,336,1.0,1.0,64,0.00,,,0.00,0,Wunderground v.1.15,2013-07-28 15:09:00,
2013-07-28 08:15:00,59.9,47.7,29.87,South,187,0.0,1.0,64,0.00,,,0.00,0,Wunderground v.1.15,2013-07-28 15:15:00,
2013-07-28 08:20:00,60.2,48.0,29.87,SSW,211,0.0,0.0,64,0.00,,,0.00,0,Wunderground v.1.15,2013-07-28 15:20:00,
2013-07-28 08:29:00,61.0,48.3,29.88,SSW,204,0.0,0.0,63,0.00,,,0.00,0,Wunderground v.1.15,2013-07-28 15:29:00,
2013-07-28 08:39:00,61.8,48.6,29.88,SSW,196,2.0,2.0,62,0.00,,,0.00,0,Wunderground v.1.15,2013-07-28 15:39:00,
2013-07-28 08:45:00,62.3,49.1,29.88,South,186,1.0,2.0,62,0.00,,,0.00,0,Wunderground v.1.15,2013-07-28 15:45:00,
2013-07-28 08:50:00,62.7,49.1,29.88,South,183,0.0,0.0,61,0.00,,,0.00,0,Wunderground v.1.15,2013-07-28 15:50:00,
2013-07-28 08:59:00,63.5,49.4,29.88,South,191,0.0,0.0,60,0.00,,,0.00,0,Wunderground v.1.15,2013-07-28 15:59:00,
2013-07-28 09:09:00,64.1,49.5,29.88,South,188,2.0,2.0,59,0.00,,,0.00,0,Wunderground v.1.15,2013-07-28 16:09:00,
2013-07-28 09:14:00,64.7,50.0,29.87,SSW,202,3.0,3.0,59,0.00,,,0.00,0,Wunderground v.1.15,2013-07-28 16:14:00,
2013-07-28 09:19:00,64.6,49.5,29.87,SSW,197,3.0,3.0,58,0.00,,,0.00,0,Wunderground v.1.15,2013-07-28 16:19:00,
2013-07-28 09:29:00,65.2,50.0,29.87,South,188,1.0,1.0,58,0.00,,,0.00,0,Wunderground v.1.15,2013-07-28 16:29:00,
2013-07-28 09:34:00,65.6,50.4,29.87,SW,236,1.0,1.0,58,0.00,,,0.00,0,Wunderground v.1.15,2013-07-28 16:34:00,
2013-07-28 09:39:00,65.9,51.2,29.87,WNW,287,3.0,3.0,59,0.00,,,0.00,0,Wunderground v.1.15,2013-07-28 16:39:00,
2013-07-28 09:49:00,66.5,55.6,29.86,SSW,211,1.0,1.0,68,0.00,,,0.00,0,Wunderground v.1.15,2013-07-28 16:49:00,
2013-07-28 09:54:00,66.7,51.9,29.87,SSW,201,3.0,3.0,59,0.00,,,0.00,0,Wunderground v.1.15,2013-07-28 16:54:00,
2013-07-28 09:59:00,66.8,51.5,29.86,SSW,208,2.0,2.0,58,0.00,,,0.00,0,Wunderground v.1.15,2013-07-28 16:59:00,
2013-07-28 10:09:00,67.0,50.3,29.87,South,189,2.0,2.0,55,0.00,,,0.00,0,Wunderground v.1.15,2013-07-28 17:09:00,
2013-07-28 10:15:00,67.3,50.6,29.86,South,190,3.0,3.0,55,0.00,,,0.00,0,Wunderground v.1.15,2013-07-28 17:15:00,
2013-07-28 10:24:00,68.1,50.8,29.87,South,180,1.0,2.0,54,0.00,,,0.00,0,Wunderground v.1.15,2013-07-28 17:24:00,
2013-07-28 10:29:00,68.6,51.3,29.87,SSW,198,2.0,2.0,54,0.00,,,0.00,0,Wunderground v.1.15,2013-07-28 17:29:00,
2013-07-28 10:39:00,70.6,62.7,29.87,SSW,213,1.0,1.0,76,0.00,,,0.00,0,Wunderground v.1.15,2013-07-28 17:39:00,
2013-07-28 10:45:00,71.2,62.9,29.87,South,186,1.0,1.0,75,0.00,,,0.00,0,Wunderground v.1.15,2013-07-28 17:45:00,
2013-07-28 10:50:00,71.5,63.2,29.87,South,181,3.0,3.0,75,0.00,,,0.00,0,Wunderground v.1.15,2013-07-28 17:50:00,
2013-07-28 10:59:00,72.0,63.3,29.87,SSW,212,2.0,2.0,74,0.00,,,0.00,0,Wunderground v.1.15,2013-07-28 17:59:00,
2013-07-28 11:09:00,72.3,63.5,29.87,WSW,257,2.0,2.0,74,0.00,,,0.00,0,Wunderground v.1.15,2013-07-28 18:09:00,
2013-07-28 11:14:00,73.2,63.6,29.87,SW,230,3.0,3.0,72,0.00,,,0.00,0,Wunderground v.1.15,2013-07-28 18:14:00,
2013-07-28 11:19:00,73.2,62.8,29.87,SSW,209,2.0,2.0,70,0.00,,,0.00,0,Wunderground v.1.15,2013-07-28 18:19:00,
2013-07-28 11:29:00,73.6,63.6,29.87,SW,228,1.0,1.0,71,0.00,,,0.00,0,Wunderground v.1.15,2013-07-28 18:29:00,
2013-07-28 11:35:00,74.1,63.3,29.87,SSW,193,4.0,4.0,69,0.00,,,0.00,0,Wunderground v.1.15,2013-07-28 18:35:00,
2013-07-28 11:44:00,74.1,63.3,29.87,SSW,196,3.0,3.0,69,0.00,,,0.00,0,Wunderground v.1.15,2013-07-28 18:44:00,
2013-07-28 11:49:00,74.3,63.5,29.87,SSW,193,7.0,7.0,69,0.00,,,0.00,0,Wunderground v.1.15,2013-07-28 18:49:00,
2013-07-28 11:59:00,75.2,64.3,29.86,SSW,200,2.0,2.0,69,0.00,,,0.00,0,Wunderground v.1.15,2013-07-28 18:59:00,
2013-07-28 12:05:00,75.1,63.8,29.86,SSW,213,1.0,2.0,68,0.00,,,0.00,0,Wunderground v.1.15,2013-07-28 19:05:00,
2013-07-28 12:14:00,74.9,63.6,29.86,SSW,193,8.0,8.0,68,0.00,,,0.00,0,Wunderground v.1.15,2013-07-28 19:14:00,
2013-07-28 12:19:00,75.1,63.4,29.86,SW,233,1.0,1.0,67,0.00,,,0.00,0,Wunderground v.1.15,2013-07-28 19:19:00,
2013-07-28 12:29:00,76.1,63.5,29.86,SW,228,1.0,1.0,65,0.00,,,0.00,0,Wunderground v.1.15,2013-07-28 19:29:00,
2013-07-28 12:35:00,76.9,64.2,29.86,SSW,197,6.0,6.0,65,0.00,,,0.00,0,Wunderground v.1.15,2013-07-28 19:35:00,
2013-07-28 12:44:00,78.1,64.5,29.85,SSW,199,1.0,5.0,63,0.00,,,0.00,0,Wunderground v.1.15,2013-07-28 19:44:00,
2013-07-28 12:49:00,78.9,60.8,29.85,SSW,199,1.0,1.0,54,0.00,,,0.00,0,Wunderground v.1.15,2013-07-28 19:49:00,
2013-07-28 12:59:00,79.2,64.1,29.85,South,182,0.0,0.0,60,0.00,,,0.00,0,Wunderground v.1.15,2013-07-28 19:59:00,
2013-07-28 13:04:00,79.6,65.0,29.85,SSW,206,1.0,1.0,61,0.00,,,0.00,0,Wunderground v.1.15,2013-07-28 20:04:00,
2013-07-28 13:09:00,80.3,60.0,29.85,SSW,194,2.0,2.0,50,0.00,,,0.00,0,Wunderground v.1.15,2013-07-28 20:09:00,
2013-07-28 13:19:00,80.5,59.0,29.85,West,264,1.0,1.0,48,0.00,,,0.00,0,Wunderground v.1.15,2013-07-28 20:19:00,
2013-07-28 13:29:00,80.7,61.4,29.85,West,270,1.0,1.0,52,0.00,,,0.00,0,Wunderground v.1.15,2013-07-28 20:29:00,
2013-07-28 13:34:00,81.4,62.1,29.84,SSW,210,2.0,2.0,52,0.00,,,0.00,0,Wunderground v.1.15,2013-07-28 20:34:00,
2013-07-28 13:44:00,81.2,60.2,29.85,SSW,205,2.0,3.0,49,0.00,,,0.00,0,Wunderground v.1.15,2013-07-28 20:44:00,
2013-07-28 13:49:00,81.4,60.4,29.85,SSW,212,0.0,0.0,49,0.00,,,0.00,0,Wunderground v.1.15,2013-07-28 20:49:00,
2013-07-28 13:59:00,83.0,66.2,29.85,West,260,2.0,2.0,57,0.00,,,0.00,0,Wunderground v.1.15,2013-07-28 20:59:00,
2013-07-28 14:05:00,83.6,66.8,29.85,SSW,209,0.0,2.0,57,0.00,,,0.00,0,Wunderground v.1.15,2013-07-28 21:05:00,
2013-07-28 14:10:00,83.6,66.2,29.85,SW,235,2.0,2.0,56,0.00,,,0.00,0,Wunderground v.1.15,2013-07-28 21:10:00,
2013-07-28 14:19:00,84.0,66.6,29.84,South,169,0.0,0.0,56,0.00,,,0.00,0,Wunderground v.1.15,2013-07-28 21:19:00,
2013-07-28 14:29:00,84.0,67.1,29.83,West,268,1.0,1.0,57,0.00,,,0.00,0,Wunderground v.1.15,2013-07-28 21:29:00,
2013-07-28 14:35:00,84.5,66.6,29.83,West,265,0.0,1.0,55,0.00,,,0.00,0,Wunderground v.1.15,2013-07-28 21:35:00,
2013-07-28 14:40:00,84.7,67.3,29.83,WNW,300,1.0,1.0,56,0.00,,,0.00,0,Wunderground v.1.15,2013-07-28 21:40:00,
2013-07-28 14:49:00,85.0,66.5,29.83,SW,230,1.0,1.0,54,0.00,,,0.00,0,Wunderground v.1.15,2013-07-28 21:49:00,
2013-07-28 14:54:00,85.2,67.2,29.83,WSW,238,1.0,1.0,55,0.00,,,0.00,0,Wunderground v.1.15,2013-07-28 21:54:00,
2013-07-28 14:59:00,85.2,67.2,29.83,West,272,4.0,4.0,55,0.00,,,0.00,0,Wunderground v.1.15,2013-07-28 21:59:00,
2013-07-28 15:09:00,85.6,67.6,29.83,WNW,282,1.0,1.0,55,0.00,,,0.00,0,Wunderground v.1.15,2013-07-28 22:09:00,
2013-07-28 15:15:00,85.7,67.1,29.82,WNW,294,1.0,1.0,54,0.00,,,0.00,0,Wunderground v.1.15,2013-07-28 22:15:00,
2013-07-28 15:20:00,86.2,67.1,29.82,WNW,298,4.0,4.0,53,0.00,,,0.00,0,Wunderground v.1.15,2013-07-28 22:20:00,
2013-07-28 15:29:00,86.6,68.0,29.82,NW,306,4.0,4.0,54,0.00,,,0.00,0,Wunderground v.1.15,2013-07-28 22:29:00,
2013-07-28 15:39:00,84.4,67.5,29.82,NW,320,4.0,4.0,57,0.00,,,0.00,0,Wunderground v.1.15,2013-07-28 22:39:00,
2013-07-28 15:45:00,83.8,67.4,29.81,ESE,112,2.0,4.0,58,0.00,,,0.00,0,Wunderground v.1.15,2013-07-28 22:45:00,
2013-07-28 15:54:00,84.2,67.3,29.81,West,279,1.0,1.0,57,0.00,,,0.00,0,Wunderground v.1.15,2013-07-28 22:54:00,
2013-07-28 15:59:00,84.5,67.1,29.82,SSW,201,1.0,1.0,56,0.00,,,0.00,0,Wunderground v.1.15,2013-07-28 22:59:00,
2013-07-28 16:09:00,85.2,67.7,29.81,West,277,0.0,0.0,56,0.00,,,0.00,0,Wunderground v.1.15,2013-07-28 23:09:00,
2013-07-28 16:14:00,85.1,67.6,29.81,SSW,194,0.0,0.0,56,0.00,,,0.00,0,Wunderground v.1.15,2013-07-28 23:14:00,
2013-07-28 16:19:00,85.5,68.0,29.81,West,259,1.0,1.0,56,0.00,,,0.00,0,Wunderground v.1.15,2013-07-28 23:19:00,
2013-07-28 16:29:00,85.0,67.5,29.81,SSW,202,3.0,3.0,56,0.00,,,0.00,0,Wunderground v.1.15,2013-07-28 23:29:00,
2013-07-28 16:39:00,84.4,67.5,29.81,SW,230,0.0,0.0,57,0.00,,,0.00,0,Wunderground v.1.15,2013-07-28 23:39:00,
2013-07-28 16:44:00,84.3,67.4,29.81,North,10,2.0,2.0,57,0.00,,,0.00,0,Wunderground v.1.15,2013-07-28 23:44:00,
2013-07-28 16:49:00,84.2,67.3,29.81,WNW,300,2.0,2.0,57,0.00,,,0.00,0,Wunderground v.1.15,2013-07-28 23:49:00,
2013-07-28 16:59:00,83.7,66.8,29.81,WSW,254,1.0,1.0,57,0.00,,,0.00,0,Wunderground v.1.15,2013-07-28 23:59:00,
2013-07-28 17:05:00,83.2,66.4,29.81,NW,319,1.0,1.0,57,0.00,,,0.00,0,Wunderground v.1.15,2013-07-29 00:05:00,
2013-07-28 17:10:00,82.0,66.3,29.81,West,263,1.0,1.0,59,0.00,,,0.00,0,Wunderground v.1.15,2013-07-29 00:10:00,
2013-07-28 17:19:00,82.2,66.4,29.81,West,272,1.0,1.0,59,0.00,,,0.00,0,Wunderground v.1.15,2013-07-29 00:19:00,
2013-07-28 17:29:00,81.5,66.3,29.81,West,277,0.0,0.0,60,0.00,,,0.00,0,Wunderground v.1.15,2013-07-29 00:29:00,
2013-07-28 17:34:00,81.0,66.3,29.81,NW,306,1.0,1.0,61,0.00,,,0.00,0,Wunderground v.1.15,2013-07-29 00:34:00,
2013-07-28 17:44:00,80.9,66.2,29.81,WNW,289,0.0,2.0,61,0.00,,,0.00,0,Wunderground v.1.15,2013-07-29 00:44:00,
2013-07-28 17:49:00,80.6,65.9,29.81,West,264,0.0,0.0,61,0.00,,,0.00,0,Wunderground v.1.15,2013-07-29 00:49:00,
2013-07-28 17:55:00,80.5,65.8,29.81,WSW,244,0.0,0.0,61,0.00,,,0.00,0,Wunderground v.1.15,2013-07-29 00:55:00,
2013-07-28 18:00:00,80.3,65.6,29.81,WNW,292,0.0,0.0,61,0.00,,,0.00,0,Wunderground v.1.15,2013-07-29 01:00:00,
2013-07-28 18:09:00,79.8,65.6,29.81,West,261,1.0,1.0,62,0.00,,,0.00,0,Wunderground v.1.15,2013-07-29 01:09:00,
2013-07-28 18:19:00,77.7,64.1,29.81,NNW,341,4.0,4.0,63,0.00,,,0.00,0,Wunderground v.1.15,2013-07-29 01:19:00,
2013-07-28 18:24:00,76.9,64.2,29.81,NW,305,3.0,4.0,65,0.00,,,0.00,0,Wunderground v.1.15,2013-07-29 01:24:00,
2013-07-28 18:39:00,77.7,64.5,29.81,NW,315,2.0,2.0,64,0.00,,,0.00,0,Wunderground v.1.15,2013-07-29 01:39:00,
2013-07-28 18:44:00,77.6,64.5,29.81,WNW,282,0.0,2.0,64,0.00,,,0.00,0,Wunderground v.1.15,2013-07-29 01:44:00,
2013-07-28 18:49:00,77.5,64.4,29.81,West,262,0.0,0.0,64,0.00,,,0.00,0,Wunderground v.1.15,2013-07-29 01:49:00,
2013-07-28 18:59:00,77.0,64.3,29.81,West,279,5.0,5.0,65,0.00,,,0.00,0,Wunderground v.1.15,2013-07-29 01:59:00,
2013-07-28 19:09:00,76.3,64.1,29.81,WNW,293,3.0,3.0,66,0.00,,,0.00,0,Wunderground v.1.15,2013-07-29 02:09:00,
2013-07-28 19:15:00,75.7,63.5,29.81,WNW,296,2.0,3.0,66,0.00,,,0.00,0,Wunderground v.1.15,2013-07-29 02:15:00,
2013-07-28 19:20:00,75.0,63.3,29.81,West,274,1.0,1.0,67,0.00,,,0.00,0,Wunderground v.1.15,2013-07-29 02:20:00,
2013-07-28 19:29:00,74.0,62.3,29.82,North,351,6.0,6.0,67,0.00,,,0.00,0,Wunderground v.1.15,2013-07-29 02:29:00,
2013-07-28 19:40:00,70.6,60.7,29.82,NNW,337,3.0,3.0,71,0.00,,,0.00,0,Wunderground v.1.15,2013-07-29 02:40:00,
2013-07-28 19:49:00,68.2,58.0,29.82,NW,306,4.0,4.0,70,0.00,,,0.00,0,Wunderground v.1.15,2013-07-29 02:49:00,
2013-07-28 19:59:00,66.1,57.6,29.82,NNW,341,4.0,4.0,74,0.00,,,0.00,0,Wunderground v.1.15,2013-07-29 02:59:00,
2013-07-28 20:05:00,65.3,58.3,29.82,NNW,335,5.0,5.0,78,0.00,,,0.00,0,Wunderground v.1.15,2013-07-29 03:05:00,
2013-07-28 20:10:00,64.8,58.1,29.82,NW,324,3.0,3.0,79,0.00,,,0.00,0,Wunderground v.1.15,2013-07-29 03:10:00,
2013-07-28 20:19:00,63.9,58.0,29.82,NNE,22,4.0,4.0,81,0.00,,,0.00,0,Wunderground v.1.15,2013-07-29 03:19:00,
2013-07-28 20:35:00,62.5,57.3,29.83,North,353,4.0,4.0,83,0.00,,,0.00,0,Wunderground v.1.15,2013-07-29 03:35:00,
2013-07-28 20:44:00,62.0,49.7,29.83,NNW,330,3.0,5.0,64,0.00,,,0.00,0,Wunderground v.1.15,2013-07-29 03:44:00,
2013-07-28 20:49:00,61.6,50.1,29.83,WNW,300,5.0,5.0,66,0.00,,,0.00,0,Wunderground v.1.15,2013-07-29 03:49:00,
2013-07-28 20:59:00,60.6,51.5,29.83,North,352,5.0,5.0,72,0.00,,,0.00,0,Wunderground v.1.15,2013-07-29 03:59:00,
2013-07-28 21:05:00,60.0,51.3,29.83,NNW,340,1.0,5.0,73,0.00,,,0.00,0,Wunderground v.1.15,2013-07-29 04:05:00,
2013-07-28 21:10:00,59.6,50.6,29.84,NW,310,4.0,4.0,72,0.00,,,0.00,0,Wunderground v.1.15,2013-07-29 04:10:00,
2013-07-28 21:19:00,59.1,51.2,29.84,WNW,289,1.0,1.0,75,0.00,,,0.00,0,Wunderground v.1.15,2013-07-29 04:19:00,
2013-07-28 21:29:00,58.9,52.1,29.84,NNW,328,2.0,2.0,78,0.00,,,0.00,0,Wunderground v.1.15,2013-07-29 04:29:00,
2013-07-28 21:39:00,58.5,53.0,29.84,NNW,347,3.0,3.0,82,0.00,,,0.00,0,Wunderground v.1.15,2013-07-29 04:39:00,
2013-07-28 21:44:00,58.4,51.9,29.84,NNW,342,1.0,3.0,79,0.00,,,0.00,0,Wunderground v.1.15,2013-07-29 04:44:00,
2013-07-28 21:49:00,58.2,51.0,29.84,NNW,342,2.0,2.0,77,0.00,,,0.00,0,Wunderground v.1.15,2013-07-29 04:49:00,
2013-07-28 21:54:00,58.1,50.6,29.84,NNW,342,1.0,2.0,76,0.00,,,0.00,0,Wunderground v.1.15,2013-07-29 04:54:00,
2013-07-28 21:59:00,57.9,51.4,29.84,NNW,342,1.0,1.0,79,0.00,,,0.00,0,Wunderground v.1.15,2013-07-29 04:59:00,
2013-07-28 22:04:00,57.9,49.3,29.84,NNW,342,3.0,3.0,73,0.00,,,0.00,0,Wunderground v.1.15,2013-07-29 05:04:00,
2013-07-28 22:09:00,57.8,45.3,29.84,NNW,334,2.0,2.0,63,0.00,,,0.00,0,Wunderground v.1.15,2013-07-29 05:09:00,
2013-07-28 22:19:00,57.6,45.1,29.84,NNW,328,2.0,2.0,63,0.00,,,0.00,0,Wunderground v.1.15,2013-07-29 05:19:00,
2013-07-28 22:24:00,57.6,44.2,29.84,NNW,328,1.0,2.0,61,0.00,,,0.00,0,Wunderground v.1.15,2013-07-29 05:24:00,
2013-07-28 22:29:00,57.5,44.1,29.85,WNW,303,3.0,3.0,61,0.00,,,0.00,0,Wunderground v.1.15,2013-07-29 05:29:00,
2013-07-28 22:39:00,57.2,47.5,29.84,NW,309,0.0,0.0,70,0.00,,,0.00,0,Wunderground v.1.15,2013-07-29 05:39:00,
2013-07-28 22:45:00,57.1,48.2,29.84,NW,309,2.0,2.0,72,0.00,,,0.00,0,Wunderground v.1.15,2013-07-29 05:45:00,
2013-07-28 22:50:00,57.1,47.0,29.85,NNW,333,3.0,3.0,69,0.00,,,0.00,0,Wunderground v.1.15,2013-07-29 05:50:00,
2013-07-28 22:59:00,57.0,45.7,29.85,NW,325,1.0,1.0,66,0.00,,,0.00,0,Wunderground v.1.15,2013-07-29 05:59:00,
2013-07-28 23:09:00,56.9,44.8,29.85,NW,325,3.0,3.0,64,0.00,,,0.00,0,Wunderground v.1.15,2013-07-29 06:09:00,
2013-07-28 23:15:00,56.8,44.3,29.85,NNW,332,1.0,3.0,63,0.00,,,0.00,0,Wunderground v.1.15,2013-07-29 06:15:00,
2013-07-28 23:20:00,56.7,43.8,29.85,NNW,332,1.0,1.0,62,0.00,,,0.00,0,Wunderground v.1.15,2013-07-29 06:20:00,
2013-07-28 23:29:00,56.5,43.6,29.85,NW,325,0.0,0.0,62,0.00,,,0.00,0,Wunderground v.1.15,2013-07-29 06:29:00,
2013-07-28 23:39:00,56.4,45.6,29.85,NNW,331,2.0,2.0,67,0.00,,,0.00,0,Wunderground v.1.15,2013-07-29 06:39:00,
2013-07-28 23:45:00,56.3,45.9,29.85,NNW,331,0.0,2.0,68,0.00,,,0.00,0,Wunderground v.1.15,2013-07-29 06:45:00,
2013-07-28 23:50:00,56.2,48.7,29.85,NNW,331,1.0,1.0,76,0.00,,,0.00,0,Wunderground v.1.15,2013-07-29 06:50:00,
2013-07-28 23:59:00,56.2,43.8,29.85,NNW,331,1.0,1.0,63,0.00,,,0.00,0,Wunderground v.1.15,2013-07-29 06:59:00,